Time;durP1;ratioP1;P1;durP2;ratioP2;P2;SDS_P1;SDS_P2;PMS_P1;PMS_P2;Temp;Humidity;BMP_temperature;BMP_pressure;BME280_temperature;BME280_humidity;BME280_pressure;Samples;Min_cycle;Max_cycle;Signal;HPM_P1;HPM_P2
2022/01/19 00:02:10;;;;;;;19.53;11.90;;;6.70;99.90;;;;;;4907267;29;20984;-71
2022/01/19 00:04:42;;;;;;;24.40;12.07;;;6.70;99.90;;;;;;4909473;29;20485;-71
2022/01/19 00:07:07;;;;;;;19.57;11.57;;;6.60;99.90;;;;;;4906648;29;20201;-72
2022/01/19 00:09:33;;;;;;;23.73;13.10;;;6.60;99.90;;;;;;4903388;29;20488;-71
2022/01/19 00:11:59;;;;;;;24.80;14.63;;;6.60;99.90;;;;;;4907375;29;20204;-71
2022/01/19 00:14:24;;;;;;;24.13;14.27;;;6.60;99.90;;;;;;4899093;29;20565;-71
2022/01/19 00:16:50;;;;;;;23.50;12.90;;;6.60;99.90;;;;;;4903031;29;20679;-72
2022/01/19 00:19:15;;;;;;;19.97;11.87;;;6.70;99.90;;;;;;4905092;29;20708;-72
2022/01/19 00:21:43;;;;;;;20.17;11.97;;;6.70;99.90;;;;;;4904185;29;20189;-72
2022/01/19 00:24:08;;;;;;;21.90;13.03;;;6.60;99.90;;;;;;4906158;29;20272;-72
2022/01/19 00:26:34;;;;;;;20.33;11.67;;;6.60;99.90;;;;;;4905883;29;20587;-72
2022/01/19 00:29:00;;;;;;;24.00;13.90;;;6.60;99.90;;;;;;4905366;29;20201;-72
2022/01/19 00:31:32;;;;;;;20.83;12.30;;;6.60;99.90;;;;;;4912206;29;20696;-71
2022/01/19 00:33:58;;;;;;;22.20;13.70;;;6.60;99.90;;;;;;4905295;29;20228;-72
2022/01/19 00:36:26;;;;;;;26.20;13.33;;;6.60;99.90;;;;;;4908214;29;20481;-71
2022/01/19 00:38:52;;;;;;;25.47;14.00;;;6.60;99.90;;;;;;4907131;29;20193;-71
2022/01/19 00:41:17;;;;;;;24.73;13.03;;;6.60;99.90;;;;;;4906060;29;20991;-71
2022/01/19 00:43:43;;;;;;;24.83;13.60;;;6.60;99.90;;;;;;4905274;29;20627;-72
2022/01/19 00:46:08;;;;;;;28.70;14.47;;;6.50;99.90;;;;;;4908620;29;20698;-72
2022/01/19 00:48:36;;;;;;;24.20;14.00;;;6.50;99.90;;;;;;4907664;29;20600;-72
2022/01/19 00:51:04;;;;;;;23.33;13.23;;;6.50;99.90;;;;;;4899442;29;20223;-71
2022/01/19 00:53:30;;;;;;;19.70;12.80;;;6.50;99.90;;;;;;4910076;29;20663;-72
2022/01/19 00:55:56;;;;;;;21.80;13.00;;;6.60;99.90;;;;;;4906366;29;20459;-72
2022/01/19 00:58:22;;;;;;;19.10;11.70;;;6.60;99.90;;;;;;4906934;29;20201;-72
2022/01/19 01:00:48;;;;;;;18.30;11.33;;;6.50;99.90;;;;;;4902608;29;20488;-72
2022/01/19 01:03:16;;;;;;;18.17;11.63;;;6.60;99.90;;;;;;4909243;29;20256;-72
2022/01/19 01:05:42;;;;;;;15.80;10.70;;;6.50;99.90;;;;;;4907469;29;20217;-72
2022/01/19 01:08:08;;;;;;;21.57;12.53;;;6.50;99.90;;;;;;4910403;29;20465;-72
2022/01/19 01:10:42;;;;;;;19.90;11.40;;;6.50;99.90;;;;;;4899901;29;20495;-71
2022/01/19 01:18:21;;;;;;;23.77;13.93;;;6.30;99.90;;;;;;4909855;29;20452;-71
2022/01/19 01:20:52;;;;;;;24.90;13.90;;;6.40;99.90;;;;;;4908756;29;20227;-71
2022/01/19 01:23:31;;;;;;;24.43;13.77;;;6.40;99.90;;;;;;4908494;29;20515;-71
2022/01/19 01:25:57;;;;;;;26.00;14.80;;;6.40;99.90;;;;;;4904514;29;20543;-72
2022/01/19 01:28:22;;;;;;;25.57;14.83;;;6.60;99.90;;;;;;4902906;29;20464;-71
2022/01/19 01:30:54;;;;;;;24.70;15.03;;;6.40;99.90;;;;;;4909065;29;20231;-72
2022/01/19 01:33:19;;;;;;;29.13;16.47;;;6.40;99.90;;;;;;4908172;29;20201;-71
2022/01/19 01:35:47;;;;;;;24.70;14.90;;;6.50;99.90;;;;;;4907910;29;20463;-71
2022/01/19 01:38:13;;;;;;;26.07;15.40;;;6.50;99.90;;;;;;4905470;29;20594;-71
2022/01/19 01:40:40;;;;;;;25.00;15.13;;;6.50;99.90;;;;;;4907147;29;20475;-71
2022/01/19 01:43:11;;;;;;;28.50;15.27;;;6.50;99.90;;;;;;4907140;29;20548;-72
2022/01/19 01:45:41;;;;;;;28.83;15.53;;;6.50;99.90;;;;;;4902677;29;20446;-72
2022/01/19 01:53:26;;;;;;;29.07;16.87;;;6.40;99.90;;;;;;4908208;29;20588;-72
2022/01/19 01:55:54;;;;;;;32.57;17.33;;;6.40;99.90;;;;;;4903893;29;20543;-71
2022/01/19 01:58:26;;;;;;;35.30;17.40;;;6.50;99.90;;;;;;4909619;29;20542;-71
2022/01/19 02:00:52;;;;;;;33.80;19.53;;;6.50;99.90;;;;;;4906167;29;20484;-71
2022/01/19 02:03:29;;;;;;;36.93;19.17;;;6.50;99.90;;;;;;4895632;29;20540;-72
2022/01/19 02:06:48;;;;;;;40.47;19.20;;;6.50;99.90;;;;;;4908187;29;20530;-72
2022/01/19 02:09:11;;;;;;;34.57;19.67;;;6.40;99.90;;;;;;4902574;29;20513;-72
2022/01/19 02:23:27;;;;;;;31.90;17.73;;;6.30;99.90;;;;;;4904071;29;20577;-71
2022/01/19 02:25:59;;;;;;;35.27;19.03;;;6.20;99.90;;;;;;4908322;29;20471;-71
2022/01/19 02:42:30;;;;;;;29.60;17.03;;;6.10;99.90;;;;;;4906252;29;20449;-71
2022/01/19 02:49:57;;;;;;;32.43;17.80;;;6.10;99.90;;;;;;4924338;23;20480;-73
2022/01/19 02:52:26;;;;;;;30.40;17.47;;;6.10;99.90;;;;;;4916510;29;20468;-73
2022/01/19 02:54:54;;;;;;;29.77;15.80;;;6.10;99.90;;;;;;4923140;29;20960;-73
2022/01/19 02:57:25;;;;;;;28.07;15.33;;;6.10;99.90;;;;;;4924587;29;20458;-72
2022/01/19 03:10:47;;;;;;;26.90;14.83;;;5.80;99.90;;;;;;4921631;29;21014;-73
2022/01/19 03:13:26;;;;;;;;;;;;;;;;;;;;;
2022/01/19 03:15:51;;;;;;;28.97;14.90;;;5.80;99.90;;;;;;4928832;29;20188;-73
2022/01/19 03:18:19;;;;;;;24.93;12.47;;;5.70;99.90;;;;;;4940905;29;20443;-72
2022/01/19 03:20:47;;;;;;;23.00;12.70;;;5.70;99.90;;;;;;4938890;29;20224;-73
2022/01/19 03:23:24;;;;;;;23.87;14.20;;;5.60;99.90;;;;;;4947138;29;20467;-73
2022/01/19 03:25:54;;;;;;;26.23;13.27;;;5.60;99.90;;;;;;4947088;29;20444;-73
2022/01/19 03:28:23;;;;;;;23.03;13.30;;;5.70;99.90;;;;;;4960021;28;20507;-73
2022/01/19 03:30:51;;;;;;;26.73;13.37;;;5.70;99.90;;;;;;4941272;29;20496;-72
2022/01/19 03:33:17;;;;;;;28.37;14.43;;;5.70;99.90;;;;;;4946518;29;20523;-73
2022/01/19 03:35:43;;;;;;;29.03;15.43;;;5.60;99.90;;;;;;4935794;29;21117;-73
2022/01/19 03:38:13;;;;;;;29.07;14.53;;;5.60;99.90;;;;;;4922438;29;20207;-73
2022/01/19 03:40:39;;;;;;;29.10;15.47;;;5.60;99.90;;;;;;4938209;29;20593;-73
2022/01/19 03:43:05;;;;;;;29.80;15.20;;;5.70;99.90;;;;;;4945334;29;20460;-73
2022/01/19 03:45:36;;;;;;;28.80;15.50;;;5.70;99.90;;;;;;4927379;29;20456;-73
2022/01/19 03:48:18;;;;;;;30.03;15.53;;;5.80;99.90;;;;;;4923093;29;20922;-73
2022/01/19 03:50:44;;;;;;;31.50;15.30;;;5.70;99.90;;;;;;4923447;29;20495;-73
2022/01/19 03:53:12;;;;;;;25.00;14.40;;;5.70;99.90;;;;;;4925476;29;20820;-73
2022/01/19 03:55:39;;;;;;;33.00;15.80;;;5.80;99.90;;;;;;4925555;29;20264;-73
2022/01/19 03:58:07;;;;;;;33.50;16.10;;;5.80;99.90;;;;;;4923056;29;20448;-73
2022/01/19 04:00:35;;;;;;;32.63;16.03;;;5.80;99.90;;;;;;4924513;29;20515;-73
2022/01/19 04:03:05;;;;;;;30.10;16.00;;;5.60;99.90;;;;;;4920833;29;20475;-73
2022/01/19 04:08:25;;;;;;;26.20;14.90;;;5.70;99.90;;;;;;4922303;29;20454;-73
2022/01/19 04:10:53;;;;;;;29.13;15.13;;;5.70;99.90;;;;;;4926867;29;20852;-73
2022/01/19 04:15:51;;;;;;;25.60;13.43;;;5.80;99.90;;;;;;4924746;29;20444;-73
2022/01/19 04:18:17;;;;;;;23.10;14.13;;;5.80;99.90;;;;;;4925429;29;20555;-73
2022/01/19 04:20:49;;;;;;;22.37;12.77;;;5.80;99.90;;;;;;4919965;29;20564;-73
2022/01/19 04:23:19;;;;;;;25.03;13.83;;;5.70;99.90;;;;;;4924133;29;20444;-73
2022/01/19 04:25:47;;;;;;;25.37;12.93;;;5.80;99.90;;;;;;4924696;29;20443;-73
2022/01/19 04:28:14;;;;;;;21.13;12.33;;;5.80;99.90;;;;;;4909032;29;20539;-73
2022/01/19 04:30:41;;;;;;;23.00;12.20;;;5.80;99.90;;;;;;4922241;29;20483;-73
2022/01/19 04:33:16;;;;;;;23.07;11.20;;;5.80;99.90;;;;;;4921968;29;20825;-73
2022/01/19 04:35:50;;;;;;;24.97;12.33;;;5.70;99.90;;;;;;4917771;29;20448;-73
2022/01/19 04:46:47;;;;;;;23.90;12.57;;;5.80;99.90;;;;;;4922752;29;20460;-73
2022/01/19 05:07:57;;;;;;;25.53;13.17;;;5.60;99.90;;;;;;4927395;29;20993;-73
2022/01/19 05:15:52;;;;;;;26.20;13.37;;;5.50;99.90;;;;;;4929229;29;20431;-73
2022/01/19 05:18:20;;;;;;;18.03;10.93;;;5.40;99.90;;;;;;4935494;29;20551;-73
2022/01/19 05:20:47;;;;;;;18.10;10.03;;;5.40;99.90;;;;;;4925588;29;20554;-73
2022/01/19 05:23:16;;;;;;;21.80;10.33;;;5.30;99.90;;;;;;4926791;29;20458;-73
2022/01/19 05:25:44;;;;;;;19.23;10.33;;;5.30;99.90;;;;;;4927098;29;20448;-73
2022/01/19 05:28:12;;;;;;;16.50;9.77;;;5.40;99.90;;;;;;4928020;29;20517;-73
2022/01/19 05:30:38;;;;;;;21.10;12.53;;;5.50;99.90;;;;;;4939193;28;20623;-72
2022/01/19 05:33:06;;;;;;;20.73;12.40;;;5.40;99.90;;;;;;4929239;29;20550;-73
2022/01/19 05:35:35;;;;;;;22.00;11.70;;;5.40;99.90;;;;;;4925076;29;20203;-73
2022/01/19 05:38:00;;;;;;;20.30;10.97;;;5.40;99.90;;;;;;4925247;29;20836;-72
2022/01/19 05:40:34;;;;;;;28.63;13.67;;;5.40;99.90;;;;;;4923666;29;20510;-72
2022/01/19 05:42:59;;;;;;;25.93;12.53;;;5.40;99.90;;;;;;4931352;29;20192;-73
2022/01/19 05:45:25;;;;;;;25.73;13.00;;;5.40;99.90;;;;;;4925927;29;20460;-72
2022/01/19 05:47:51;;;;;;;20.47;12.27;;;5.40;99.90;;;;;;4916487;29;20204;-73
2022/01/19 05:50:16;;;;;;;25.53;12.33;;;5.50;99.90;;;;;;4924657;29;20711;-73
2022/01/19 05:52:44;;;;;;;23.83;13.70;;;5.50;99.90;;;;;;4929143;29;20197;-73
2022/01/19 05:55:12;;;;;;;25.43;12.60;;;5.50;99.90;;;;;;4926372;29;20723;-73
2022/01/19 05:57:39;;;;;;;24.80;13.43;;;5.50;99.90;;;;;;4925335;29;21098;-73
2022/01/19 06:00:06;;;;;;;24.60;14.23;;;5.50;99.90;;;;;;4922424;29;20471;-73
2022/01/19 06:02:33;;;;;;;22.60;13.30;;;5.50;99.90;;;;;;4932193;29;20491;-73
2022/01/19 06:05:02;;;;;;;25.83;12.73;;;5.50;99.90;;;;;;4925114;29;20435;-73
2022/01/19 06:07:42;;;;;;;23.13;12.17;;;5.50;99.90;;;;;;4921738;29;20808;-73
2022/01/19 06:10:11;;;;;;;21.90;12.27;;;5.50;99.90;;;;;;4928165;29;20488;-73
2022/01/19 06:12:40;;;;;;;20.40;12.77;;;5.60;99.90;;;;;;4920152;29;20543;-74
2022/01/19 06:15:09;;;;;;;25.27;11.73;;;5.60;99.90;;;;;;4923803;29;20506;-74
2022/01/19 06:17:37;;;;;;;22.27;12.20;;;5.60;99.90;;;;;;4939328;29;20445;-74
2022/01/19 06:20:05;;;;;;;22.53;12.37;;;5.50;99.90;;;;;;4927761;29;20468;-74
2022/01/19 06:22:30;;;;;;;23.27;13.00;;;5.50;99.90;;;;;;4938743;29;20480;-74
2022/01/19 06:24:59;;;;;;;32.47;14.77;;;5.50;99.90;;;;;;4938967;29;20974;-74
2022/01/19 06:27:24;;;;;;;24.97;13.93;;;5.50;99.90;;;;;;4930309;29;20184;-74
2022/01/19 06:29:55;;;;;;;22.63;13.80;;;5.50;99.90;;;;;;4920140;29;20451;-74
2022/01/19 06:32:25;;;;;;;30.40;14.07;;;5.50;99.90;;;;;;4918477;29;20210;-74
2022/01/19 06:34:51;;;;;;;30.27;15.13;;;5.50;99.90;;;;;;4925122;28;20446;-74
2022/01/19 06:37:17;;;;;;;30.87;15.83;;;5.60;99.90;;;;;;4922249;29;20778;-74
2022/01/19 06:39:43;;;;;;;29.50;15.20;;;5.60;99.90;;;;;;4926552;29;20275;-74
2022/01/19 06:42:09;;;;;;;34.07;14.77;;;5.60;99.90;;;;;;4920051;29;20979;-74
2022/01/19 06:44:34;;;;;;;26.33;14.23;;;5.60;99.90;;;;;;4922257;29;20250;-74
2022/01/19 06:47:00;;;;;;;31.50;15.50;;;5.60;99.90;;;;;;4924371;29;20264;-75
2022/01/19 06:49:26;;;;;;;31.03;15.90;;;5.70;99.90;;;;;;4926662;29;20211;-75
2022/01/19 06:51:51;;;;;;;25.97;14.17;;;5.70;99.90;;;;;;4920986;29;20227;-74
2022/01/19 06:54:17;;;;;;;34.37;16.03;;;5.80;99.90;;;;;;4925107;29;20275;-74
2022/01/19 06:56:42;;;;;;;28.53;17.20;;;5.70;99.90;;;;;;4925268;29;20194;-75
2022/01/19 06:59:08;;;;;;;33.90;17.13;;;5.80;99.90;;;;;;4930870;29;20631;-74
2022/01/19 07:01:33;;;;;;;35.43;18.90;;;5.80;99.90;;;;;;4927415;29;20234;-74
2022/01/19 07:04:01;;;;;;;39.97;19.10;;;5.90;99.90;;;;;;4924709;28;20214;-74
2022/01/19 07:06:26;;;;;;;32.47;18.47;;;5.80;99.90;;;;;;4916125;29;20212;-74
2022/01/19 07:08:52;;;;;;;33.63;17.53;;;5.90;99.90;;;;;;4921827;29;20472;-74
2022/01/19 07:11:18;;;;;;;37.67;20.27;;;5.90;99.90;;;;;;4924639;29;20220;-74
2022/01/19 07:13:43;;;;;;;37.50;20.00;;;5.90;99.90;;;;;;4927415;29;20189;-74
2022/01/19 07:16:09;;;;;;;38.17;20.97;;;6.00;99.90;;;;;;4926718;29;20195;-74
2022/01/19 07:18:34;;;;;;;35.27;20.43;;;6.00;99.90;;;;;;4918362;29;20196;-74
2022/01/19 07:21:00;;;;;;;37.93;19.37;;;6.00;99.90;;;;;;4926406;29;20215;-74
2022/01/19 07:23:25;;;;;;;36.30;20.53;;;6.00;99.90;;;;;;4926182;29;20199;-75
2022/01/19 07:25:51;;;;;;;41.07;21.07;;;6.00;99.90;;;;;;4924550;29;20203;-74
2022/01/19 07:28:16;;;;;;;39.30;21.40;;;6.00;99.90;;;;;;4922917;29;20730;-74
2022/01/19 07:30:42;;;;;;;38.93;21.67;;;6.00;99.90;;;;;;4922476;29;20212;-74
2022/01/19 07:33:08;;;;;;;35.60;19.50;;;6.00;99.90;;;;;;4923504;29;20188;-74
2022/01/19 07:35:33;;;;;;;38.23;20.50;;;6.00;99.90;;;;;;4925658;29;20203;-74
2022/01/19 07:37:59;;;;;;;36.80;20.50;;;6.00;99.90;;;;;;4927624;29;20275;-74
2022/01/19 07:40:24;;;;;;;39.50;20.03;;;6.00;99.90;;;;;;4925151;29;20356;-75
2022/01/19 07:42:51;;;;;;;35.17;19.57;;;6.00;99.90;;;;;;4926866;29;20196;-74
2022/01/19 07:45:17;;;;;;;35.90;19.63;;;6.00;99.90;;;;;;4924608;29;20246;-74
2022/01/19 07:47:43;;;;;;;39.87;20.30;;;6.10;99.90;;;;;;4923728;29;20508;-74
2022/01/19 07:50:09;;;;;;;36.40;19.93;;;6.10;99.90;;;;;;4924524;29;20582;-75
2022/01/19 07:52:35;;;;;;;39.00;20.30;;;6.10;99.90;;;;;;4927951;29;20200;-74
2022/01/19 07:55:00;;;;;;;39.10;19.73;;;6.10;99.90;;;;;;4927337;29;20440;-75
2022/01/19 07:57:27;;;;;;;40.00;21.00;;;6.10;99.90;;;;;;4931063;29;20203;-74
2022/01/19 07:59:53;;;;;;;38.23;21.13;;;6.00;99.90;;;;;;4924011;29;20195;-74
2022/01/19 08:02:18;;;;;;;39.77;20.80;;;6.00;99.90;;;;;;4922442;29;20467;-75
2022/01/19 08:04:45;;;;;;;34.07;19.50;;;6.00;99.90;;;;;;4929020;29;20598;-74
2022/01/19 08:07:11;;;;;;;43.80;21.80;;;6.00;99.90;;;;;;4927309;29;20195;-74
2022/01/19 08:09:37;;;;;;;35.07;20.13;;;6.00;99.90;;;;;;4923999;29;20455;-75
2022/01/19 08:12:03;;;;;;;38.70;19.93;;;6.10;99.90;;;;;;4924130;29;20220;-75
2022/01/19 08:14:29;;;;;;;35.57;20.60;;;5.90;99.90;;;;;;4925162;29;20202;-74
2022/01/19 08:16:55;;;;;;;33.10;19.50;;;6.00;99.90;;;;;;4925704;29;20444;-75
2022/01/19 08:19:21;;;;;;;40.17;21.03;;;6.10;99.90;;;;;;4924597;29;20188;-75
2022/01/19 08:21:48;;;;;;;34.50;18.90;;;6.10;99.90;;;;;;4929582;29;20558;-74
2022/01/19 08:24:14;;;;;;;38.90;19.57;;;6.10;99.90;;;;;;4926360;29;20938;-74
2022/01/19 08:26:40;;;;;;;36.03;20.40;;;6.10;99.90;;;;;;4940252;29;21039;-74
2022/01/19 08:29:06;;;;;;;35.50;18.50;;;6.10;99.90;;;;;;4924071;29;20494;-75
2022/01/19 08:31:33;;;;;;;38.17;21.03;;;6.00;99.90;;;;;;4927147;29;20479;-74
2022/01/19 08:33:58;;;;;;;41.20;22.00;;;6.20;99.90;;;;;;4922732;29;20188;-75
2022/01/19 08:36:24;;;;;;;36.50;19.37;;;6.10;99.90;;;;;;4920755;29;20443;-74
2022/01/19 08:38:50;;;;;;;37.90;20.33;;;6.10;99.90;;;;;;4925736;29;20307;-75
2022/01/19 08:41:16;;;;;;;33.13;22.43;;;6.00;99.90;;;;;;4924211;29;20235;-74
2022/01/19 08:43:41;;;;;;;36.80;20.00;;;6.10;99.90;;;;;;4924639;29;20184;-74
2022/01/19 08:46:07;;;;;;;37.57;21.27;;;6.00;99.90;;;;;;4923546;29;20451;-74
2022/01/19 08:48:33;;;;;;;39.03;21.40;;;6.00;99.90;;;;;;4922665;29;20386;-74
2022/01/19 08:50:58;;;;;;;42.00;21.90;;;6.00;99.90;;;;;;4924620;29;20252;-75
2022/01/19 08:53:24;;;;;;;39.70;21.10;;;5.90;99.90;;;;;;4957523;23;20267;-76
2022/01/19 08:55:50;;;;;;;38.47;19.63;;;5.90;99.90;;;;;;4958911;29;20206;-77
2022/01/19 08:58:16;;;;;;;40.13;22.00;;;6.00;99.90;;;;;;4970725;28;20591;-75
2022/01/19 09:00:43;;;;;;;39.07;20.53;;;5.90;99.90;;;;;;4955167;28;20521;-78
2022/01/19 09:03:09;;;;;;;37.77;21.27;;;5.90;99.90;;;;;;4952550;29;20494;-78
2022/01/19 09:05:35;;;;;;;34.73;19.90;;;5.90;99.90;;;;;;4951513;29;20454;-79
2022/01/19 09:08:00;;;;;;;42.27;21.13;;;5.90;99.90;;;;;;4957788;28;20969;-76
2022/01/19 09:10:26;;;;;;;37.00;18.23;;;5.90;99.90;;;;;;4955916;28;20594;-75
2022/01/19 09:12:52;;;;;;;33.60;19.40;;;5.90;99.90;;;;;;4958141;29;20547;-76
2022/01/19 09:15:18;;;;;;;34.53;19.97;;;5.90;99.90;;;;;;4957652;29;20192;-75
2022/01/19 09:17:44;;;;;;;34.07;19.20;;;5.90;99.90;;;;;;4953074;28;20444;-78
2022/01/19 09:20:12;;;;;;;39.53;21.50;;;6.00;99.90;;;;;;4951095;28;20682;-79
2022/01/19 09:22:38;;;;;;;42.07;20.27;;;6.00;99.90;;;;;;4946868;29;20491;-75
2022/01/19 09:25:05;;;;;;;40.90;20.73;;;6.00;99.90;;;;;;4956202;28;20455;-76
2022/01/19 09:27:31;;;;;;;40.53;21.00;;;6.00;99.90;;;;;;4954640;29;20478;-76
2022/01/19 09:29:57;;;;;;;35.40;20.93;;;6.10;99.90;;;;;;4953409;29;20971;-78
2022/01/19 09:32:23;;;;;;;38.67;19.63;;;6.10;99.90;;;;;;4953489;29;20259;-77
2022/01/19 09:34:55;;;;;;;43.50;20.90;;;6.10;99.90;;;;;;4953223;29;20187;-76
2022/01/19 09:37:21;;;;;;;42.13;21.70;;;6.10;99.90;;;;;;4954810;29;20439;-78
2022/01/19 09:39:46;;;;;;;41.63;21.03;;;6.10;99.90;;;;;;4954143;29;20541;-79
2022/01/19 09:42:14;;;;;;;39.13;22.07;;;6.10;99.90;;;;;;4954566;29;20494;-77
2022/01/19 09:44:40;;;;;;;37.17;20.60;;;6.10;99.90;;;;;;4955236;29;20230;-77
2022/01/19 09:47:07;;;;;;;37.43;20.20;;;6.10;99.90;;;;;;4955934;28;20805;-77
2022/01/19 09:49:33;;;;;;;42.10;22.13;;;6.10;99.90;;;;;;4950295;29;20462;-78
2022/01/19 09:51:59;;;;;;;37.20;21.90;;;6.20;99.90;;;;;;4955828;29;20470;-78
2022/01/19 09:54:26;;;;;;;39.07;21.40;;;6.10;99.90;;;;;;4954813;29;20222;-77
2022/01/19 09:56:53;;;;;;;42.47;23.30;;;6.10;99.90;;;;;;4952380;28;20552;-77
2022/01/19 09:59:19;;;;;;;40.93;22.37;;;6.10;99.90;;;;;;4953732;29;21024;-78
2022/01/19 10:02:01;;;;;;;38.40;21.37;;;6.20;99.90;;;;;;4949900;29;20518;-76
2022/01/19 10:04:30;;;;;;;40.53;21.33;;;6.20;99.90;;;;;;4945398;28;20440;-77
2022/01/19 10:07:14;;;;;;;38.07;20.90;;;6.20;99.90;;;;;;4951648;29;20454;-77
2022/01/19 10:09:49;;;;;;;42.80;21.90;;;6.30;99.90;;;;;;4951730;28;20466;-76
2022/01/19 10:18:16;;;;;;;39.37;21.30;;;6.30;99.90;;;;;;4950864;28;20479;-78
2022/01/19 10:20:43;;;;;;;44.20;22.27;;;6.30;99.90;;;;;;4953232;28;21010;-77
2022/01/19 10:23:52;;;;;;;41.80;21.90;;;6.30;99.90;;;;;;4958126;28;20484;-78
2022/01/19 10:26:27;;;;;;;37.20;20.33;;;6.30;99.90;;;;;;4950722;28;20502;-80
2022/01/19 10:29:02;;;;;;;38.67;20.20;;;6.30;99.90;;;;;;4958160;29;20442;-78
2022/01/19 10:31:32;;;;;;;40.53;21.20;;;6.30;99.90;;;;;;4954891;29;20904;-78
2022/01/19 10:34:23;;;;;;;39.67;21.83;;;6.30;99.90;;;;;;4957758;29;20502;-76
2022/01/19 10:36:56;;;;;;;36.90;19.67;;;6.40;99.90;;;;;;4955924;29;20522;-78
2022/01/19 10:39:23;;;;;;;35.23;20.00;;;6.40;99.90;;;;;;4956765;29;20455;-77
2022/01/19 10:42:09;;;;;;;36.73;20.20;;;6.30;99.90;;;;;;4952214;29;20450;-77
2022/01/19 10:44:37;;;;;;;35.43;20.87;;;6.30;99.90;;;;;;4946220;29;21766;-77
2022/01/19 10:47:05;;;;;;;33.30;19.40;;;6.20;99.90;;;;;;4950908;29;20577;-78
2022/01/19 10:49:56;;;;;;;37.73;21.70;;;6.40;99.90;;;;;;4958028;29;20982;-78
2022/01/19 10:52:40;;;;;;;36.40;20.87;;;6.20;99.90;;;;;;4961160;29;20470;-76
2022/01/19 10:55:15;;;;;;;39.07;21.57;;;6.20;99.90;;;;;;4954960;29;20454;-78
2022/01/19 10:57:42;;;;;;;41.73;22.30;;;6.10;99.90;;;;;;4956139;29;20454;-77
2022/01/19 11:00:16;;;;;;;34.87;20.80;;;6.10;99.90;;;;;;4947354;29;20450;-78
2022/01/19 11:02:43;;;;;;;40.97;23.10;;;6.10;99.90;;;;;;4952761;29;20854;-77
2022/01/19 11:05:10;;;;;;;39.60;20.73;;;5.90;99.90;;;;;;4950529;29;20465;-77
2022/01/19 11:07:36;;;;;;;39.90;21.57;;;6.00;99.90;;;;;;4958987;28;20475;-76
2022/01/19 11:10:12;;;;;;;35.50;21.77;;;6.10;99.90;;;;;;4952482;29;20439;-80
2022/01/19 11:12:50;;;;;;;35.70;21.50;;;6.10;99.90;;;;;;4953713;29;20466;-77
2022/01/19 11:15:19;;;;;;;36.40;22.40;;;6.10;99.90;;;;;;4950190;29;20459;-76
2022/01/19 11:17:47;;;;;;;35.97;21.33;;;6.10;99.90;;;;;;4952100;29;20482;-78
2022/01/19 11:20:15;;;;;;;37.17;22.30;;;6.00;99.90;;;;;;4956474;28;20509;-78
2022/01/19 11:22:55;;;;;;;34.63;20.87;;;6.10;99.90;;;;;;4954697;29;20558;-77
2022/01/19 11:25:50;;;;;;;40.00;21.63;;;5.90;99.90;;;;;;4949395;29;20483;-79
2022/01/19 11:28:32;;;;;;;32.10;20.80;;;6.00;99.90;;;;;;4954435;29;20510;-76
2022/01/19 11:30:57;;;;;;;38.23;21.40;;;5.90;99.90;;;;;;4948945;29;20957;-76
2022/01/19 11:33:41;;;;;;;34.87;21.80;;;5.80;99.90;;;;;;4955776;29;20491;-78
2022/01/19 11:36:34;;;;;;;38.63;21.47;;;5.80;99.90;;;;;;4946096;29;20281;-79
2022/01/19 11:39:05;;;;;;;37.90;23.17;;;5.80;99.90;;;;;;4948988;29;20921;-78
2022/01/19 11:41:54;;;;;;;37.33;22.70;;;5.80;99.90;;;;;;4954026;29;20586;-77
2022/01/19 11:44:41;;;;;;;38.10;20.60;;;5.70;99.90;;;;;;4948007;29;20562;-76
2022/01/19 11:47:17;;;;;;;36.17;22.57;;;5.70;99.90;;;;;;4945510;29;20611;-76
2022/01/19 11:50:13;;;;;;;35.40;20.73;;;5.80;99.90;;;;;;4954245;29;20808;-76
2022/01/19 11:52:40;;;;;;;39.10;21.60;;;5.50;99.90;;;;;;4949442;29;20490;-76
2022/01/19 11:55:23;;;;;;;38.13;20.00;;;5.50;99.90;;;;;;4953166;28;20830;-78
2022/01/19 11:58:09;;;;;;;40.23;21.70;;;5.50;99.90;;;;;;4949331;29;20439;-77
2022/01/19 12:00:35;;;;;;;38.53;20.83;;;5.50;99.90;;;;;;4956355;28;20574;-77
2022/01/19 12:03:25;;;;;;;39.73;22.10;;;5.60;99.90;;;;;;4948885;29;21033;-78
2022/01/19 12:05:53;;;;;;;36.70;19.30;;;5.50;99.90;;;;;;4946616;29;20974;-79
2022/01/19 12:08:31;;;;;;;38.40;21.47;;;5.50;99.90;;;;;;4950964;29;20486;-78
2022/01/19 12:11:15;;;;;;;31.67;19.13;;;5.50;99.90;;;;;;4956171;28;20476;-76
2022/01/19 12:14:00;;;;;;;33.80;19.67;;;5.50;99.90;;;;;;4945934;29;20519;-77
2022/01/19 12:19:14;;;;;;;35.40;20.63;;;5.30;99.90;;;;;;4949208;28;20525;-76
2022/01/19 12:21:45;;;;;;;47.30;22.77;;;5.30;99.90;;;;;;4944725;28;20443;-77
2022/01/19 12:24:15;;;;;;;33.03;20.70;;;5.40;99.90;;;;;;4953121;29;20447;-77
2022/01/19 12:26:49;;;;;;;42.00;22.03;;;5.40;99.90;;;;;;4949962;29;20467;-76
2022/01/19 12:29:33;;;;;;;38.50;22.20;;;5.50;99.90;;;;;;4948286;29;20485;-75
2022/01/19 12:32:17;;;;;;;39.53;22.20;;;5.50;99.90;;;;;;4948839;29;20475;-78
2022/01/19 12:34:48;;;;;;;37.40;21.33;;;5.60;99.90;;;;;;4953152;29;20432;-76
2022/01/19 12:37:37;;;;;;;36.43;22.03;;;5.60;99.90;;;;;;4946309;29;20446;-78
2022/01/19 12:40:25;;;;;;;35.13;21.40;;;5.50;99.90;;;;;;4951424;29;20485;-78
2022/01/19 12:42:52;;;;;;;36.40;22.20;;;5.60;99.90;;;;;;4947047;29;20518;-77
2022/01/19 12:45:27;;;;;;;36.53;21.63;;;5.60;99.90;;;;;;4946200;28;21133;-78
2022/01/19 12:47:58;;;;;;;37.63;22.53;;;5.50;99.90;;;;;;4949309;29;20447;-77
2022/01/19 12:50:24;;;;;;;31.90;20.20;;;5.60;99.90;;;;;;4954355;28;20562;-77
2022/01/19 12:52:53;;;;;;;34.73;21.93;;;5.60;99.90;;;;;;4956473;29;21297;-78
2022/01/19 12:55:34;;;;;;;32.20;20.60;;;5.60;99.90;;;;;;4967605;28;20351;-78
2022/01/19 12:58:07;;;;;;;40.07;22.47;;;5.60;99.90;;;;;;4950426;29;22015;-76
2022/01/19 13:00:33;;;;;;;35.97;21.20;;;5.60;99.90;;;;;;4953931;29;20482;-79
2022/01/19 13:03:10;;;;;;;33.97;20.07;;;5.60;99.90;;;;;;4944854;29;20471;-78
2022/01/19 13:05:43;;;;;;;36.20;21.80;;;5.60;99.90;;;;;;4949745;29;20452;-78
2022/01/19 13:08:09;;;;;;;32.03;20.37;;;5.60;99.90;;;;;;4949296;28;20466;-77
2022/01/19 13:13:14;;;;;;;36.87;21.57;;;5.60;99.90;;;;;;4951134;29;20223;-78
2022/01/19 13:15:43;;;;;;;36.70;21.23;;;5.60;99.90;;;;;;4950951;29;20943;-78
2022/01/19 13:18:10;;;;;;;37.80;22.63;;;5.60;99.90;;;;;;4949693;29;20849;-78
2022/01/19 13:20:36;;;;;;;36.93;20.60;;;5.70;99.90;;;;;;4947484;28;20464;-76
2022/01/19 13:23:04;;;;;;;34.03;20.37;;;5.70;99.90;;;;;;4943109;28;20541;-77
2022/01/19 13:25:32;;;;;;;35.73;19.90;;;5.70;99.90;;;;;;4950335;28;20440;-78
2022/01/19 13:28:01;;;;;;;35.40;20.90;;;5.70;99.90;;;;;;4948423;29;20458;-78
2022/01/19 13:30:29;;;;;;;35.70;21.33;;;5.60;99.90;;;;;;4946935;28;20525;-76
2022/01/19 13:32:56;;;;;;;38.00;20.70;;;5.60;99.90;;;;;;4949731;29;20498;-76
2022/01/19 13:35:23;;;;;;;33.37;20.43;;;5.60;99.90;;;;;;4946183;29;20482;-77
2022/01/19 13:37:55;;;;;;;33.20;20.37;;;5.40;99.90;;;;;;4945985;28;20444;-76
2022/01/19 13:40:23;;;;;;;35.80;20.80;;;5.50;99.90;;;;;;4942615;28;20503;-74
2022/01/19 13:42:53;;;;;;;34.07;20.43;;;5.50;99.90;;;;;;4943582;28;20466;-74
2022/01/19 13:50:53;;;;;;;35.17;20.87;;;5.40;99.90;;;;;;4946929;29;20470;-75
2022/01/19 13:53:40;;;;;;;35.80;21.37;;;5.40;99.90;;;;;;4942829;29;20521;-74
2022/01/19 13:56:09;;;;;;;38.73;21.07;;;5.30;99.90;;;;;;4943177;29;21327;-77
2022/01/19 13:58:43;;;;;;;35.77;20.30;;;5.30;99.90;;;;;;4942380;29;20455;-74
2022/01/19 14:01:15;;;;;;;39.17;21.40;;;5.40;99.90;;;;;;4936093;28;20479;-76
2022/01/19 14:03:52;;;;;;;35.50;19.17;;;5.40;99.90;;;;;;4941060;29;20471;-76
2022/01/19 14:06:30;;;;;;;38.43;21.80;;;5.50;99.90;;;;;;4946007;29;20499;-77
2022/01/19 14:09:18;;;;;;;37.63;19.80;;;5.40;99.90;;;;;;4946036;29;20943;-76
2022/01/19 14:11:56;;;;;;;41.40;22.10;;;5.40;99.90;;;;;;4945118;29;20965;-78
2022/01/19 14:14:25;;;;;;;37.83;22.03;;;5.40;99.90;;;;;;4946888;29;20450;-76
2022/01/19 14:16:53;;;;;;;35.40;20.90;;;5.40;99.90;;;;;;4955602;29;20443;-77
2022/01/19 14:19:20;;;;;;;40.40;22.23;;;5.40;99.90;;;;;;4946942;29;20510;-77
2022/01/19 14:22:07;;;;;;;42.40;21.30;;;5.40;99.90;;;;;;4946485;29;20474;-74
2022/01/19 14:24:49;;;;;;;43.80;22.70;;;5.50;99.90;;;;;;4940579;29;20459;-75
2022/01/19 14:27:32;;;;;;;37.47;22.33;;;5.50;99.90;;;;;;4944278;29;20447;-76
2022/01/19 14:30:17;;;;;;;34.63;20.20;;;5.50;99.90;;;;;;4949974;28;20529;-75
2022/01/19 14:32:54;;;;;;;37.27;20.80;;;5.60;99.90;;;;;;4947470;29;20484;-75
2022/01/19 14:35:45;;;;;;;36.50;20.80;;;5.60;99.90;;;;;;4947637;29;20535;-75
2022/01/19 14:38:24;;;;;;;40.87;22.37;;;5.70;99.90;;;;;;4950015;29;20546;-78
2022/01/19 14:40:59;;;;;;;42.00;22.00;;;5.60;99.90;;;;;;4948922;28;20454;-73